sensor_id;sensor_type;location;lat;lon;timestamp;P1;durP1;ratioP1;P2;durP2;ratioP2
31974;SDS011;18500;43.618;1.474;2022-11-15T06:45:52;713.50;;;665.67;;
31974;SDS011;18500;43.618;1.474;2022-11-15T06:48:18;638.38;;;596.08;;
31974;SDS011;18500;43.618;1.474;2022-11-15T06:50:49;596.42;;;557.45;;
31974;SDS011;18500;43.618;1.474;2022-11-15T06:53:18;645.72;;;602.90;;
31974;SDS011;18500;43.618;1.474;2022-11-15T06:55:44;501.75;;;470.77;;
31974;SDS011;18500;43.618;1.474;2022-11-15T06:58:09;510.30;;;479.05;;
31974;SDS011;18500;43.618;1.474;2022-11-15T07:00:35;544.72;;;511.15;;
31974;SDS011;18500;43.618;1.474;2022-11-15T07:03:01;554.90;;;520.20;;
31974;SDS011;18500;43.618;1.474;2022-11-15T07:05:27;480.70;;;451.92;;
31974;SDS011;18500;43.618;1.474;2022-11-15T07:07:53;514.97;;;482.08;;
31974;SDS011;18500;43.618;1.474;2022-11-15T07:10:20;503.02;;;471.83;;
31974;SDS011;18500;43.618;1.474;2022-11-15T07:12:47;588.60;;;550.85;;
31974;SDS011;18500;43.618;1.474;2022-11-15T07:15:14;550.40;;;514.90;;
31974;SDS011;18500;43.618;1.474;2022-11-15T07:17:40;585.92;;;546.83;;
31974;SDS011;18500;43.618;1.474;2022-11-15T07:20:06;609.80;;;570.17;;
31974;SDS011;18500;43.618;1.474;2022-11-15T07:22:32;649.55;;;606.97;;
31974;SDS011;18500;43.618;1.474;2022-11-15T07:24:58;598.85;;;559.92;;
31974;SDS011;18500;43.618;1.474;2022-11-15T07:27:23;651.50;;;607.83;;
31974;SDS011;18500;43.618;1.474;2022-11-15T07:29:49;670.92;;;625.92;;
31974;SDS011;18500;43.618;1.474;2022-11-15T07:32:15;700.58;;;652.42;;
31974;SDS011;18500;43.618;1.474;2022-11-15T07:34:40;745.53;;;693.22;;
31974;SDS011;18500;43.618;1.474;2022-11-15T07:37:06;749.15;;;696.00;;
31974;SDS011;18500;43.618;1.474;2022-11-15T07:39:32;708.42;;;658.88;;
31974;SDS011;18500;43.618;1.474;2022-11-15T07:41:58;722.83;;;672.22;;
31974;SDS011;18500;43.618;1.474;2022-11-15T07:44:42;717.85;;;667.83;;
31974;SDS011;18500;43.618;1.474;2022-11-15T07:47:08;706.53;;;658.17;;
31974;SDS011;18500;43.618;1.474;2022-11-15T07:49:34;710.25;;;661.17;;
31974;SDS011;18500;43.618;1.474;2022-11-15T07:51:59;686.80;;;640.80;;
31974;SDS011;18500;43.618;1.474;2022-11-15T07:54:25;738.95;;;687.63;;
31974;SDS011;18500;43.618;1.474;2022-11-15T07:56:51;702.10;;;654.00;;
31974;SDS011;18500;43.618;1.474;2022-11-15T07:59:16;704.55;;;655.90;;
31974;SDS011;18500;43.618;1.474;2022-11-15T08:01:42;731.42;;;680.67;;
31974;SDS011;18500;43.618;1.474;2022-11-15T08:04:09;725.40;;;675.97;;
31974;SDS011;18500;43.618;1.474;2022-11-15T08:06:36;701.70;;;654.47;;
31974;SDS011;18500;43.618;1.474;2022-11-15T08:09:02;699.92;;;652.10;;
31974;SDS011;18500;43.618;1.474;2022-11-15T08:11:28;763.35;;;709.40;;
31974;SDS011;18500;43.618;1.474;2022-11-15T08:13:54;756.58;;;703.80;;
31974;SDS011;18500;43.618;1.474;2022-11-15T08:16:20;720.20;;;670.60;;
31974;SDS011;18500;43.618;1.474;2022-11-15T08:18:45;676.80;;;631.45;;
31974;SDS011;18500;43.618;1.474;2022-11-15T08:21:12;735.35;;;685.03;;
31974;SDS011;18500;43.618;1.474;2022-11-15T08:23:42;740.77;;;689.60;;
31974;SDS011;18500;43.618;1.474;2022-11-15T08:26:08;724.08;;;675.28;;
31974;SDS011;18500;43.618;1.474;2022-11-15T08:28:34;728.50;;;679.60;;
31974;SDS011;18500;43.618;1.474;2022-11-15T08:31:00;715.47;;;667.45;;
31974;SDS011;18500;43.618;1.474;2022-11-15T08:33:27;722.20;;;671.90;;
31974;SDS011;18500;43.618;1.474;2022-11-15T08:35:55;678.40;;;633.72;;
31974;SDS011;18500;43.618;1.474;2022-11-15T08:38:22;720.67;;;672.15;;
31974;SDS011;18500;43.618;1.474;2022-11-15T08:40:48;761.17;;;707.78;;
31974;SDS011;18500;43.618;1.474;2022-11-15T08:43:15;854.63;;;792.40;;
31974;SDS011;18500;43.618;1.474;2022-11-15T08:45:40;738.20;;;687.55;;
31974;SDS011;18500;43.618;1.474;2022-11-15T08:48:06;638.63;;;597.00;;
31974;SDS011;18500;43.618;1.474;2022-11-15T08:50:31;686.83;;;640.45;;
31974;SDS011;18500;43.618;1.474;2022-11-15T08:52:57;702.58;;;653.53;;
31974;SDS011;18500;43.618;1.474;2022-11-15T08:55:28;643.37;;;601.63;;
31974;SDS011;18500;43.618;1.474;2022-11-15T08:57:56;630.92;;;588.25;;
31974;SDS011;18500;43.618;1.474;2022-11-15T09:00:22;747.15;;;691.08;;
31974;SDS011;18500;43.618;1.474;2022-11-15T09:02:48;889.28;;;812.58;;
31974;SDS011;18500;43.618;1.474;2022-11-15T09:05:13;888.10;;;815.35;;
31974;SDS011;18500;43.618;1.474;2022-11-15T09:07:40;895.47;;;814.92;;
31974;SDS011;18500;43.618;1.474;2022-11-15T09:10:06;873.88;;;797.15;;
31974;SDS011;18500;43.618;1.474;2022-11-15T09:12:32;953.65;;;866.28;;
31974;SDS011;18500;43.618;1.474;2022-11-15T09:14:57;757.28;;;695.42;;
31974;SDS011;18500;43.618;1.474;2022-11-15T09:17:23;884.53;;;809.25;;
31974;SDS011;18500;43.618;1.474;2022-11-15T09:19:49;824.80;;;761.35;;
31974;SDS011;18500;43.618;1.474;2022-11-15T09:22:14;841.72;;;774.63;;
31974;SDS011;18500;43.618;1.474;2022-11-15T09:24:40;708.67;;;655.13;;
31974;SDS011;18500;43.618;1.474;2022-11-15T09:27:06;858.38;;;788.53;;
31974;SDS011;18500;43.618;1.474;2022-11-15T09:29:31;884.15;;;810.97;;
31974;SDS011;18500;43.618;1.474;2022-11-15T09:31:57;871.60;;;800.97;;
31974;SDS011;18500;43.618;1.474;2022-11-15T09:34:23;928.80;;;848.90;;
31974;SDS011;18500;43.618;1.474;2022-11-15T09:36:48;936.00;;;854.95;;
31974;SDS011;18500;43.618;1.474;2022-11-15T09:39:14;890.45;;;816.55;;
31974;SDS011;18500;43.618;1.474;2022-11-15T09:50:12;751.67;;;693.03;;
31974;SDS011;18500;43.618;1.474;2022-11-15T09:52:43;790.83;;;729.97;;
31974;SDS011;18500;43.618;1.474;2022-11-15T09:55:10;722.38;;;667.47;;
31974;SDS011;18500;43.618;1.474;2022-11-15T09:57:54;847.25;;;779.53;;
31974;SDS011;18500;43.618;1.474;2022-11-15T10:00:42;804.28;;;743.38;;
31974;SDS011;18500;43.618;1.474;2022-11-15T10:03:17;792.13;;;731.45;;
31974;SDS011;18500;43.618;1.474;2022-11-15T10:05:55;841.08;;;775.65;;
31974;SDS011;18500;43.618;1.474;2022-11-15T10:08:31;759.70;;;700.78;;
31974;SDS011;18500;43.618;1.474;2022-11-15T10:11:02;850.60;;;784.28;;
31974;SDS011;18500;43.618;1.474;2022-11-15T10:13:31;821.33;;;756.33;;
31974;SDS011;18500;43.618;1.474;2022-11-15T10:24:19;664.92;;;612.80;;
31974;SDS011;18500;43.618;1.474;2022-11-15T10:26:49;859.38;;;789.58;;
31974;SDS011;18500;43.618;1.474;2022-11-15T10:29:19;734.67;;;679.30;;
31974;SDS011;18500;43.618;1.474;2022-11-15T10:31:45;645.78;;;596.28;;
31974;SDS011;18500;43.618;1.474;2022-11-15T10:34:18;549.85;;;510.35;;
31974;SDS011;18500;43.618;1.474;2022-11-15T10:36:46;614.22;;;570.60;;
31974;SDS011;18500;43.618;1.474;2022-11-15T10:39:21;614.28;;;569.42;;
31974;SDS011;18500;43.618;1.474;2022-11-15T10:41:47;577.70;;;536.17;;
31974;SDS011;18500;43.618;1.474;2022-11-15T10:46:45;551.65;;;512.28;;
31974;SDS011;18500;43.618;1.474;2022-11-15T10:49:23;617.30;;;572.22;;
31974;SDS011;18500;43.618;1.474;2022-11-15T10:51:57;630.63;;;585.33;;
31974;SDS011;18500;43.618;1.474;2022-11-15T10:54:38;600.38;;;557.22;;
31974;SDS011;18500;43.618;1.474;2022-11-15T10:57:14;657.13;;;610.03;;
31974;SDS011;18500;43.618;1.474;2022-11-15T10:59:44;562.72;;;522.10;;
31974;SDS011;18500;43.618;1.474;2022-11-15T11:02:30;579.47;;;537.77;;
31974;SDS011;18500;43.618;1.474;2022-11-15T11:10:37;661.70;;;614.17;;
31974;SDS011;18500;43.618;1.474;2022-11-15T11:13:21;428.27;;;400.48;;
31974;SDS011;18500;43.618;1.474;2022-11-15T11:15:53;416.15;;;388.77;;
31974;SDS011;18500;43.618;1.474;2022-11-15T11:18:25;412.00;;;385.25;;
31974;SDS011;18500;43.618;1.474;2022-11-15T11:21:15;481.80;;;448.95;;
31974;SDS011;18500;43.618;1.474;2022-11-15T11:23:53;714.50;;;658.17;;
31974;SDS011;18500;43.618;1.474;2022-11-15T11:40:35;827.88;;;757.80;;
31974;SDS011;18500;43.618;1.474;2022-11-15T11:43:16;668.30;;;619.78;;
31974;SDS011;18500;43.618;1.474;2022-11-15T11:46:08;764.75;;;705.08;;
31974;SDS011;18500;43.618;1.474;2022-11-15T11:57:00;971.58;;;890.58;;
31974;SDS011;18500;43.618;1.474;2022-11-15T12:01:58;913.35;;;840.70;;
31974;SDS011;18500;43.618;1.474;2022-11-15T12:04:37;830.88;;;767.03;;
31974;SDS011;18500;43.618;1.474;2022-11-15T12:07:24;746.08;;;691.78;;
31974;SDS011;18500;43.618;1.474;2022-11-15T12:12:49;823.05;;;758.90;;
31974;SDS011;18500;43.618;1.474;2022-11-15T12:15:22;857.17;;;791.00;;
31974;SDS011;18500;43.618;1.474;2022-11-15T12:18:01;907.60;;;832.70;;
31974;SDS011;18500;43.618;1.474;2022-11-15T12:20:27;919.13;;;845.33;;
31974;SDS011;18500;43.618;1.474;2022-11-15T12:23:41;1035.65;;;939.30;;
31974;SDS011;18500;43.618;1.474;2022-11-15T12:25:58;988.20;;;902.53;;
31974;SDS011;18500;43.618;1.474;2022-11-15T12:33:48;1007.88;;;920.15;;
31974;SDS011;18500;43.618;1.474;2022-11-15T12:38:59;974.67;;;890.58;;
31974;SDS011;18500;43.618;1.474;2022-11-15T12:41:26;935.35;;;858.55;;
31974;SDS011;18500;43.618;1.474;2022-11-15T12:43:53;981.30;;;895.08;;
31974;SDS011;18500;43.618;1.474;2022-11-15T12:49:02;840.80;;;776.08;;
31974;SDS011;18500;43.618;1.474;2022-11-15T12:57:10;928.08;;;852.28;;
31974;SDS011;18500;43.618;1.474;2022-11-15T13:02:24;899.90;;;828.72;;
31974;SDS011;18500;43.618;1.474;2022-11-15T13:22:40;893.78;;;822.30;;
31974;SDS011;18500;43.618;1.474;2022-11-15T13:25:48;854.72;;;788.50;;
31974;SDS011;18500;43.618;1.474;2022-11-15T13:33:56;883.67;;;814.22;;
31974;SDS011;18500;43.618;1.474;2022-11-15T13:36:28;773.83;;;716.90;;
31974;SDS011;18500;43.618;1.474;2022-11-15T13:39:02;733.47;;;680.42;;
31974;SDS011;18500;43.618;1.474;2022-11-15T13:41:34;775.42;;;718.63;;
31974;SDS011;18500;43.618;1.474;2022-11-15T13:44:02;752.85;;;698.08;;
31974;SDS011;18500;43.618;1.474;2022-11-15T13:46:29;739.08;;;684.72;;
31974;SDS011;18500;43.618;1.474;2022-11-15T13:49:02;672.13;;;624.83;;
31974;SDS011;18500;43.618;1.474;2022-11-15T13:57:12;694.40;;;645.58;;
31974;SDS011;18500;43.618;1.474;2022-11-15T13:59:47;711.25;;;660.47;;
31974;SDS011;18500;43.618;1.474;2022-11-15T14:02:17;716.03;;;664.97;;
31974;SDS011;18500;43.618;1.474;2022-11-15T14:04:57;772.55;;;714.65;;
31974;SDS011;18500;43.618;1.474;2022-11-15T14:07:56;730.00;;;677.05;;
31974;SDS011;18500;43.618;1.474;2022-11-15T14:10:30;671.63;;;623.28;;
31974;SDS011;18500;43.618;1.474;2022-11-15T14:12:57;695.25;;;645.15;;
31974;SDS011;18500;43.618;1.474;2022-11-15T14:15:25;676.15;;;626.85;;
31974;SDS011;18500;43.618;1.474;2022-11-15T14:17:59;652.67;;;606.58;;
31974;SDS011;18500;43.618;1.474;2022-11-15T14:22:51;633.97;;;589.60;;
31974;SDS011;18500;43.618;1.474;2022-11-15T14:25:22;656.10;;;609.65;;
31974;SDS011;18500;43.618;1.474;2022-11-15T14:30:48;616.03;;;573.05;;
31974;SDS011;18500;43.618;1.474;2022-11-15T14:33:20;595.22;;;553.97;;
31974;SDS011;18500;43.618;1.474;2022-11-15T14:35:54;701.58;;;650.45;;
31974;SDS011;18500;43.618;1.474;2022-11-15T14:38:22;627.60;;;583.83;;
31974;SDS011;18500;43.618;1.474;2022-11-15T14:40:48;560.63;;;522.60;;
31974;SDS011;18500;43.618;1.474;2022-11-15T14:43:14;517.58;;;483.13;;
31974;SDS011;18500;43.618;1.474;2022-11-15T14:45:40;510.88;;;476.40;;
31974;SDS011;18500;43.618;1.474;2022-11-15T14:48:06;538.97;;;503.27;;
31974;SDS011;18500;43.618;1.474;2022-11-15T14:50:32;567.95;;;528.90;;
31974;SDS011;18500;43.618;1.474;2022-11-15T14:52:59;641.03;;;595.85;;
31974;SDS011;18500;43.618;1.474;2022-11-15T14:55:32;672.65;;;625.95;;
31974;SDS011;18500;43.618;1.474;2022-11-15T14:58:04;455.38;;;425.38;;
31974;SDS011;18500;43.618;1.474;2022-11-15T15:00:33;510.23;;;476.33;;
31974;SDS011;18500;43.618;1.474;2022-11-15T15:02:59;575.60;;;536.75;;
31974;SDS011;18500;43.618;1.474;2022-11-15T15:05:36;661.25;;;613.72;;
31974;SDS011;18500;43.618;1.474;2022-11-15T15:08:04;491.17;;;457.30;;
31974;SDS011;18500;43.618;1.474;2022-11-15T15:10:34;532.22;;;497.15;;
31974;SDS011;18500;43.618;1.474;2022-11-15T15:13:02;652.10;;;607.50;;
31974;SDS011;18500;43.618;1.474;2022-11-15T15:15:38;636.58;;;592.35;;
31974;SDS011;18500;43.618;1.474;2022-11-15T15:18:04;589.97;;;550.80;;
31974;SDS011;18500;43.618;1.474;2022-11-15T15:20:31;677.03;;;629.67;;
31974;SDS011;18500;43.618;1.474;2022-11-15T15:22:57;815.50;;;746.47;;
31974;SDS011;18500;43.618;1.474;2022-11-15T15:25:30;752.13;;;695.70;;
31974;SDS011;18500;43.618;1.474;2022-11-15T15:28:00;773.75;;;712.38;;
31974;SDS011;18500;43.618;1.474;2022-11-15T15:30:27;684.15;;;636.60;;
31974;SDS011;18500;43.618;1.474;2022-11-15T15:32:54;759.28;;;700.78;;
31974;SDS011;18500;43.618;1.474;2022-11-15T15:35:20;768.50;;;710.78;;
31974;SDS011;18500;43.618;1.474;2022-11-15T15:37:47;739.78;;;686.25;;
31974;SDS011;18500;43.618;1.474;2022-11-15T15:42:45;639.03;;;595.83;;
31974;SDS011;18500;43.618;1.474;2022-11-15T15:45:11;587.45;;;548.78;;
31974;SDS011;18500;43.618;1.474;2022-11-15T15:47:37;453.02;;;423.23;;
31974;SDS011;18500;43.618;1.474;2022-11-15T15:50:04;440.25;;;410.83;;
31974;SDS011;18500;43.618;1.474;2022-11-15T15:52:36;446.10;;;416.73;;
31974;SDS011;18500;43.618;1.474;2022-11-15T15:55:02;532.28;;;496.65;;
31974;SDS011;18500;43.618;1.474;2022-11-15T15:57:28;542.58;;;505.00;;
31974;SDS011;18500;43.618;1.474;2022-11-15T15:59:53;598.55;;;556.90;;
31974;SDS011;18500;43.618;1.474;2022-11-15T16:02:19;488.13;;;455.58;;
31974;SDS011;18500;43.618;1.474;2022-11-15T16:04:45;495.80;;;460.60;;
31974;SDS011;18500;43.618;1.474;2022-11-15T16:07:15;536.72;;;498.63;;
31974;SDS011;18500;43.618;1.474;2022-11-15T16:09:46;597.80;;;554.17;;
31974;SDS011;18500;43.618;1.474;2022-11-15T16:12:27;573.37;;;533.57;;
31974;SDS011;18500;43.618;1.474;2022-11-15T16:14:54;629.60;;;582.88;;
31974;SDS011;18500;43.618;1.474;2022-11-15T16:17:21;660.10;;;611.40;;
31974;SDS011;18500;43.618;1.474;2022-11-15T16:19:49;640.20;;;594.53;;
31974;SDS011;18500;43.618;1.474;2022-11-15T16:22:14;671.33;;;622.42;;
31974;SDS011;18500;43.618;1.474;2022-11-15T16:24:40;719.13;;;661.83;;
31974;SDS011;18500;43.618;1.474;2022-11-15T16:27:09;701.65;;;648.03;;
31974;SDS011;18500;43.618;1.474;2022-11-15T16:29:41;700.47;;;646.95;;
31974;SDS011;18500;43.618;1.474;2022-11-15T16:32:06;651.33;;;603.50;;
31974;SDS011;18500;43.618;1.474;2022-11-15T16:34:32;636.17;;;589.40;;
31974;SDS011;18500;43.618;1.474;2022-11-15T16:36:57;567.55;;;527.03;;
31974;SDS011;18500;43.618;1.474;2022-11-15T16:39:23;646.80;;;599.05;;
31974;SDS011;18500;43.618;1.474;2022-11-15T16:41:49;693.75;;;642.88;;
31974;SDS011;18500;43.618;1.474;2022-11-15T16:44:14;652.13;;;605.05;;
31974;SDS011;18500;43.618;1.474;2022-11-15T16:46:43;677.90;;;628.10;;
31974;SDS011;18500;43.618;1.474;2022-11-15T16:49:15;631.22;;;585.85;;
31974;SDS011;18500;43.618;1.474;2022-11-15T16:51:42;638.10;;;592.60;;
31974;SDS011;18500;43.618;1.474;2022-11-15T16:54:10;627.17;;;582.03;;
31974;SDS011;18500;43.618;1.474;2022-11-15T16:56:37;628.40;;;583.85;;
31974;SDS011;18500;43.618;1.474;2022-11-15T16:59:04;665.28;;;617.10;;
31974;SDS011;18500;43.618;1.474;2022-11-15T17:01:31;683.75;;;633.30;;
31974;SDS011;18500;43.618;1.474;2022-11-15T17:03:59;700.67;;;650.38;;
31974;SDS011;18500;43.618;1.474;2022-11-15T17:06:38;763.28;;;706.65;;
31974;SDS011;18500;43.618;1.474;2022-11-15T17:09:05;675.80;;;627.53;;
31974;SDS011;18500;43.618;1.474;2022-11-15T17:11:35;696.10;;;645.88;;
31974;SDS011;18500;43.618;1.474;2022-11-15T17:14:00;625.13;;;580.15;;
31974;SDS011;18500;43.618;1.474;2022-11-15T17:16:26;697.33;;;646.35;;
31974;SDS011;18500;43.618;1.474;2022-11-15T17:18:52;738.30;;;683.55;;
31974;SDS011;18500;43.618;1.474;2022-11-15T17:21:18;733.17;;;678.63;;
31974;SDS011;18500;43.618;1.474;2022-11-15T17:23:45;715.35;;;661.85;;
31974;SDS011;18500;43.618;1.474;2022-11-15T17:26:12;699.33;;;648.50;;
31974;SDS011;18500;43.618;1.474;2022-11-15T17:28:39;700.83;;;649.47;;
31974;SDS011;18500;43.618;1.474;2022-11-15T17:31:07;704.80;;;652.97;;
31974;SDS011;18500;43.618;1.474;2022-11-15T17:33:34;727.03;;;673.65;;
31974;SDS011;18500;43.618;1.474;2022-11-15T17:36:02;699.05;;;648.45;;
31974;SDS011;18500;43.618;1.474;2022-11-15T17:38:29;702.67;;;650.78;;
31974;SDS011;18500;43.618;1.474;2022-11-15T17:41:02;753.45;;;697.28;;
31974;SDS011;18500;43.618;1.474;2022-11-15T17:43:34;738.78;;;684.42;;
31974;SDS011;18500;43.618;1.474;2022-11-15T17:46:03;781.22;;;723.30;;
31974;SDS011;18500;43.618;1.474;2022-11-15T17:48:30;816.75;;;755.38;;
31974;SDS011;18500;43.618;1.474;2022-11-15T17:50:57;798.90;;;739.03;;
31974;SDS011;18500;43.618;1.474;2022-11-15T17:53:24;743.25;;;688.65;;
31974;SDS011;18500;43.618;1.474;2022-11-15T17:55:50;670.78;;;624.75;;
31974;SDS011;18500;43.618;1.474;2022-11-15T17:58:16;728.70;;;676.08;;
31974;SDS011;18500;43.618;1.474;2022-11-15T18:00:45;791.58;;;734.42;;
31974;SDS011;18500;43.618;1.474;2022-11-15T18:03:11;807.67;;;747.75;;
31974;SDS011;18500;43.618;1.474;2022-11-15T18:05:38;808.95;;;748.88;;
31974;SDS011;18500;43.618;1.474;2022-11-15T18:08:07;846.03;;;783.22;;
31974;SDS011;18500;43.618;1.474;2022-11-15T18:10:34;805.22;;;745.50;;
31974;SDS011;18500;43.618;1.474;2022-11-15T18:13:00;793.78;;;732.88;;
31974;SDS011;18500;43.618;1.474;2022-11-15T18:15:25;799.60;;;737.53;;
31974;SDS011;18500;43.618;1.474;2022-11-15T18:17:51;822.95;;;760.95;;
31974;SDS011;18500;43.618;1.474;2022-11-15T18:20:17;874.53;;;799.53;;
31974;SDS011;18500;43.618;1.474;2022-11-15T18:22:42;858.55;;;781.75;;
31974;SDS011;18500;43.618;1.474;2022-11-15T18:25:08;819.90;;;754.67;;
31974;SDS011;18500;43.618;1.474;2022-11-15T18:27:33;673.72;;;622.63;;
31974;SDS011;18500;43.618;1.474;2022-11-15T18:29:59;602.30;;;561.95;;
31974;SDS011;18500;43.618;1.474;2022-11-15T18:32:25;580.38;;;542.67;;
31974;SDS011;18500;43.618;1.474;2022-11-15T18:34:50;572.28;;;536.78;;
31974;SDS011;18500;43.618;1.474;2022-11-15T18:37:16;602.08;;;563.53;;
31974;SDS011;18500;43.618;1.474;2022-11-15T18:39:42;594.63;;;553.65;;
31974;SDS011;18500;43.618;1.474;2022-11-15T18:42:07;582.00;;;543.95;;
31974;SDS011;18500;43.618;1.474;2022-11-15T18:44:33;618.97;;;577.70;;
31974;SDS011;18500;43.618;1.474;2022-11-15T18:46:58;650.83;;;607.63;;
31974;SDS011;18500;43.618;1.474;2022-11-15T18:49:24;685.25;;;639.45;;
31974;SDS011;18500;43.618;1.474;2022-11-15T18:51:50;680.17;;;634.92;;
31974;SDS011;18500;43.618;1.474;2022-11-15T18:54:15;688.53;;;641.80;;
31974;SDS011;18500;43.618;1.474;2022-11-15T18:56:42;661.88;;;616.97;;
31974;SDS011;18500;43.618;1.474;2022-11-15T18:59:08;650.13;;;606.63;;
31974;SDS011;18500;43.618;1.474;2022-11-15T19:01:35;659.55;;;614.75;;
31974;SDS011;18500;43.618;1.474;2022-11-15T19:06:40;626.78;;;583.53;;
31974;SDS011;18500;43.618;1.474;2022-11-15T19:09:08;455.52;;;426.02;;
31974;SDS011;18500;43.618;1.474;2022-11-15T19:11:35;517.00;;;481.77;;
31974;SDS011;18500;43.618;1.474;2022-11-15T19:14:10;721.83;;;669.80;;
31974;SDS011;18500;43.618;1.474;2022-11-15T19:16:39;617.35;;;572.83;;
31974;SDS011;18500;43.618;1.474;2022-11-15T19:19:11;634.08;;;589.22;;
31974;SDS011;18500;43.618;1.474;2022-11-15T19:21:40;511.27;;;476.83;;
31974;SDS011;18500;43.618;1.474;2022-11-15T19:24:05;586.97;;;547.95;;
31974;SDS011;18500;43.618;1.474;2022-11-15T19:26:31;633.50;;;591.30;;
31974;SDS011;18500;43.618;1.474;2022-11-15T19:28:58;564.38;;;528.47;;
31974;SDS011;18500;43.618;1.474;2022-11-15T19:31:25;618.22;;;577.08;;
31974;SDS011;18500;43.618;1.474;2022-11-15T19:33:53;587.47;;;548.47;;
31974;SDS011;18500;43.618;1.474;2022-11-15T19:36:20;433.90;;;407.33;;
31974;SDS011;18500;43.618;1.474;2022-11-15T19:38:47;453.30;;;424.85;;
31974;SDS011;18500;43.618;1.474;2022-11-15T19:41:14;423.35;;;397.23;;
31974;SDS011;18500;43.618;1.474;2022-11-15T19:43:41;539.67;;;504.67;;
31974;SDS011;18500;43.618;1.474;2022-11-15T19:46:08;509.95;;;477.30;;
31974;SDS011;18500;43.618;1.474;2022-11-15T19:48:35;538.13;;;504.42;;
31974;SDS011;18500;43.618;1.474;2022-11-15T19:51:03;526.03;;;493.02;;
31974;SDS011;18500;43.618;1.474;2022-11-15T19:53:33;484.88;;;454.52;;
31974;SDS011;18500;43.618;1.474;2022-11-15T19:56:00;513.92;;;481.98;;
31974;SDS011;18500;43.618;1.474;2022-11-15T19:58:27;478.92;;;449.90;;
31974;SDS011;18500;43.618;1.474;2022-11-15T20:01:37;431.83;;;406.52;;
31974;SDS011;18500;43.618;1.474;2022-11-15T20:03:45;523.60;;;491.58;;
31974;SDS011;18500;43.618;1.474;2022-11-15T20:06:13;526.03;;;494.33;;
31974;SDS011;18500;43.618;1.474;2022-11-15T20:08:43;455.45;;;429.17;;
31974;SDS011;18500;43.618;1.474;2022-11-15T20:11:10;436.17;;;411.35;;
31974;SDS011;18500;43.618;1.474;2022-11-15T20:13:36;399.33;;;377.33;;
31974;SDS011;18500;43.618;1.474;2022-11-15T20:16:03;354.42;;;335.15;;
31974;SDS011;18500;43.618;1.474;2022-11-15T20:18:29;389.38;;;367.60;;
31974;SDS011;18500;43.618;1.474;2022-11-15T20:20:54;511.60;;;480.58;;
31974;SDS011;18500;43.618;1.474;2022-11-15T20:23:23;399.55;;;376.67;;
31974;SDS011;18500;43.618;1.474;2022-11-15T20:25:49;406.13;;;383.00;;
31974;SDS011;18500;43.618;1.474;2022-11-15T20:28:16;387.00;;;364.63;;
31974;SDS011;18500;43.618;1.474;2022-11-15T20:30:50;428.90;;;403.80;;
31974;SDS011;18500;43.618;1.474;2022-11-15T20:33:17;472.88;;;444.30;;
31974;SDS011;18500;43.618;1.474;2022-11-15T20:35:44;458.70;;;431.67;;
31974;SDS011;18500;43.618;1.474;2022-11-15T20:38:10;501.90;;;471.27;;
31974;SDS011;18500;43.618;1.474;2022-11-15T20:40:36;449.10;;;422.77;;
31974;SDS011;18500;43.618;1.474;2022-11-15T20:43:03;418.05;;;393.88;;
31974;SDS011;18500;43.618;1.474;2022-11-15T20:45:29;351.35;;;331.55;;
31974;SDS011;18500;43.618;1.474;2022-11-15T20:47:55;534.92;;;501.83;;
31974;SDS011;18500;43.618;1.474;2022-11-15T20:50:22;369.67;;;348.52;;
31974;SDS011;18500;43.618;1.474;2022-11-15T20:52:48;342.20;;;321.92;;
31974;SDS011;18500;43.618;1.474;2022-11-15T20:55:14;401.48;;;378.25;;
31974;SDS011;18500;43.618;1.474;2022-11-15T20:57:39;409.77;;;385.30;;
31974;SDS011;18500;43.618;1.474;2022-11-15T21:00:05;322.17;;;303.25;;
31974;SDS011;18500;43.618;1.474;2022-11-15T21:02:32;369.95;;;348.55;;
31974;SDS011;18500;43.618;1.474;2022-11-15T21:04:57;411.40;;;386.38;;
31974;SDS011;18500;43.618;1.474;2022-11-15T21:07:23;429.65;;;404.27;;
31974;SDS011;18500;43.618;1.474;2022-11-15T21:09:49;336.00;;;315.30;;
31974;SDS011;18500;43.618;1.474;2022-11-15T21:12:33;372.58;;;350.17;;
31974;SDS011;18500;43.618;1.474;2022-11-15T21:14:59;408.70;;;384.83;;
31974;SDS011;18500;43.618;1.474;2022-11-15T21:17:25;335.17;;;315.73;;
31974;SDS011;18500;43.618;1.474;2022-11-15T21:19:51;356.85;;;336.15;;
31974;SDS011;18500;43.618;1.474;2022-11-15T21:22:17;444.75;;;417.70;;
31974;SDS011;18500;43.618;1.474;2022-11-15T21:24:43;357.65;;;337.33;;
31974;SDS011;18500;43.618;1.474;2022-11-15T21:27:09;362.27;;;341.40;;
31974;SDS011;18500;43.618;1.474;2022-11-15T21:29:34;370.33;;;348.92;;
31974;SDS011;18500;43.618;1.474;2022-11-15T21:32:01;574.13;;;537.20;;
31974;SDS011;18500;43.618;1.474;2022-11-15T21:34:28;354.80;;;333.33;;
31974;SDS011;18500;43.618;1.474;2022-11-15T21:36:53;497.40;;;466.88;;
31974;SDS011;18500;43.618;1.474;2022-11-15T21:39:19;423.63;;;398.20;;
31974;SDS011;18500;43.618;1.474;2022-11-15T21:41:44;452.70;;;425.70;;
31974;SDS011;18500;43.618;1.474;2022-11-15T21:44:10;522.78;;;490.67;;
31974;SDS011;18500;43.618;1.474;2022-11-15T21:46:36;421.33;;;396.92;;
31974;SDS011;18500;43.618;1.474;2022-11-15T21:49:02;407.83;;;383.20;;
31974;SDS011;18500;43.618;1.474;2022-11-15T21:51:29;384.05;;;361.95;;
31974;SDS011;18500;43.618;1.474;2022-11-15T21:53:55;476.15;;;445.45;;
31974;SDS011;18500;43.618;1.474;2022-11-15T21:56:22;374.65;;;352.35;;
31974;SDS011;18500;43.618;1.474;2022-11-15T21:58:49;357.77;;;336.55;;
31974;SDS011;18500;43.618;1.474;2022-11-15T22:01:16;348.33;;;327.67;;
31974;SDS011;18500;43.618;1.474;2022-11-15T22:04:00;417.67;;;393.02;;
31974;SDS011;18500;43.618;1.474;2022-11-15T22:06:26;353.80;;;332.90;;
31974;SDS011;18500;43.618;1.474;2022-11-15T22:08:51;413.33;;;389.17;;
31974;SDS011;18500;43.618;1.474;2022-11-15T22:11:17;463.27;;;433.98;;
31974;SDS011;18500;43.618;1.474;2022-11-15T22:13:43;623.22;;;583.30;;
31974;SDS011;18500;43.618;1.474;2022-11-15T22:16:08;470.80;;;440.83;;
31974;SDS011;18500;43.618;1.474;2022-11-15T22:18:34;580.40;;;544.15;;
31974;SDS011;18500;43.618;1.474;2022-11-15T22:21:01;568.53;;;532.92;;
31974;SDS011;18500;43.618;1.474;2022-11-15T22:23:29;381.27;;;359.65;;
31974;SDS011;18500;43.618;1.474;2022-11-15T22:25:56;365.20;;;344.58;;
31974;SDS011;18500;43.618;1.474;2022-11-15T22:28:23;529.03;;;497.52;;
31974;SDS011;18500;43.618;1.474;2022-11-15T22:30:50;488.23;;;457.75;;
